sensor_id;sensor_type;location;lat;lon;timestamp;P1;durP1;ratioP1;P2;durP2;ratioP2
5662;SDS011;2854;42.692;23.364;2022-09-03T00:00:04;4.43;;;3.20;;
5662;SDS011;2854;42.692;23.364;2022-09-03T00:02:41;12.13;;;3.60;;
5662;SDS011;2854;42.692;23.364;2022-09-03T00:10:27;4.37;;;3.40;;
5662;SDS011;2854;42.692;23.364;2022-09-03T00:12:55;5.10;;;3.27;;
5662;SDS011;2854;42.692;23.364;2022-09-03T00:15:21;3.40;;;2.60;;
5662;SDS011;2854;42.692;23.364;2022-09-03T00:17:52;3.40;;;3.10;;
5662;SDS011;2854;42.692;23.364;2022-09-03T00:22:46;4.83;;;3.23;;
5662;SDS011;2854;42.692;23.364;2022-09-03T00:25:14;4.20;;;3.50;;
5662;SDS011;2854;42.692;23.364;2022-09-03T00:27:41;4.77;;;3.43;;
5662;SDS011;2854;42.692;23.364;2022-09-03T00:30:09;3.30;;;3.00;;
5662;SDS011;2854;42.692;23.364;2022-09-03T00:36:03;5.07;;;3.40;;
5662;SDS011;2854;42.692;23.364;2022-09-03T00:38:00;3.10;;;2.90;;
5662;SDS011;2854;42.692;23.364;2022-09-03T00:48:31;3.07;;;2.77;;
5662;SDS011;2854;42.692;23.364;2022-09-03T00:51:04;4.43;;;3.37;;
5662;SDS011;2854;42.692;23.364;2022-09-03T00:53:39;3.33;;;3.00;;
5662;SDS011;2854;42.692;23.364;2022-09-03T00:59:09;3.03;;;2.80;;
5662;SDS011;2854;42.692;23.364;2022-09-03T01:07:13;3.07;;;2.80;;
5662;SDS011;2854;42.692;23.364;2022-09-03T01:25:21;3.50;;;3.20;;
5662;SDS011;2854;42.692;23.364;2022-09-03T01:30:22;3.20;;;2.90;;
5662;SDS011;2854;42.692;23.364;2022-09-03T01:35:32;2.73;;;2.40;;
5662;SDS011;2854;42.692;23.364;2022-09-03T01:38:06;5.57;;;3.40;;
5662;SDS011;2854;42.692;23.364;2022-09-03T01:43:18;3.90;;;3.60;;
5662;SDS011;2854;42.692;23.364;2022-09-03T01:48:18;2.60;;;2.40;;
5662;SDS011;2854;42.692;23.364;2022-09-03T01:50:57;3.20;;;3.00;;
5662;SDS011;2854;42.692;23.364;2022-09-03T01:56:14;3.20;;;3.00;;
5662;SDS011;2854;42.692;23.364;2022-09-03T01:58:46;3.50;;;3.20;;
5662;SDS011;2854;42.692;23.364;2022-09-03T02:01:16;3.20;;;2.97;;
5662;SDS011;2854;42.692;23.364;2022-09-03T02:03:44;2.63;;;2.47;;
5662;SDS011;2854;42.692;23.364;2022-09-03T02:06:11;6.00;;;3.90;;
5662;SDS011;2854;42.692;23.364;2022-09-03T02:08:36;3.63;;;3.33;;
5662;SDS011;2854;42.692;23.364;2022-09-03T02:11:02;6.80;;;3.93;;
5662;SDS011;2854;42.692;23.364;2022-09-03T02:13:43;4.80;;;3.67;;
5662;SDS011;2854;42.692;23.364;2022-09-03T02:16:11;3.60;;;2.90;;
5662;SDS011;2854;42.692;23.364;2022-09-03T02:18:45;3.30;;;3.00;;
5662;SDS011;2854;42.692;23.364;2022-09-03T02:21:11;3.77;;;3.47;;
5662;SDS011;2854;42.692;23.364;2022-09-03T02:23:38;3.47;;;3.17;;
5662;SDS011;2854;42.692;23.364;2022-09-03T02:26:03;3.97;;;3.57;;
5662;SDS011;2854;42.692;23.364;2022-09-03T02:28:30;3.30;;;3.00;;
5662;SDS011;2854;42.692;23.364;2022-09-03T02:30:56;3.90;;;3.50;;
5662;SDS011;2854;42.692;23.364;2022-09-03T02:33:21;3.53;;;3.27;;
5662;SDS011;2854;42.692;23.364;2022-09-03T02:35:47;5.20;;;3.50;;
5662;SDS011;2854;42.692;23.364;2022-09-03T02:38:19;3.67;;;3.30;;
5662;SDS011;2854;42.692;23.364;2022-09-03T02:40:45;3.30;;;3.00;;
5662;SDS011;2854;42.692;23.364;2022-09-03T02:43:13;4.20;;;3.80;;
5662;SDS011;2854;42.692;23.364;2022-09-03T02:45:41;4.73;;;3.67;;
5662;SDS011;2854;42.692;23.364;2022-09-03T02:48:09;6.00;;;3.80;;
5662;SDS011;2854;42.692;23.364;2022-09-03T02:50:41;3.90;;;3.50;;
5662;SDS011;2854;42.692;23.364;2022-09-03T02:53:06;3.30;;;3.03;;
5662;SDS011;2854;42.692;23.364;2022-09-03T02:55:32;3.93;;;3.20;;
5662;SDS011;2854;42.692;23.364;2022-09-03T02:57:57;3.73;;;3.37;;
5662;SDS011;2854;42.692;23.364;2022-09-03T03:00:24;4.10;;;3.70;;
5662;SDS011;2854;42.692;23.364;2022-09-03T03:02:50;6.10;;;3.77;;
5662;SDS011;2854;42.692;23.364;2022-09-03T03:05:17;3.83;;;3.10;;
5662;SDS011;2854;42.692;23.364;2022-09-03T03:07:45;5.00;;;3.47;;
5662;SDS011;2854;42.692;23.364;2022-09-03T03:10:10;3.87;;;3.53;;
5662;SDS011;2854;42.692;23.364;2022-09-03T03:12:36;5.47;;;4.00;;
5662;SDS011;2854;42.692;23.364;2022-09-03T03:15:02;4.00;;;3.60;;
5662;SDS011;2854;42.692;23.364;2022-09-03T03:17:27;3.87;;;3.67;;
5662;SDS011;2854;42.692;23.364;2022-09-03T03:19:52;4.53;;;3.80;;
5662;SDS011;2854;42.692;23.364;2022-09-03T03:22:18;7.47;;;3.70;;
5662;SDS011;2854;42.692;23.364;2022-09-03T03:24:43;7.53;;;4.30;;
5662;SDS011;2854;42.692;23.364;2022-09-03T03:27:09;3.40;;;3.10;;
5662;SDS011;2854;42.692;23.364;2022-09-03T03:29:35;10.27;;;4.60;;
5662;SDS011;2854;42.692;23.364;2022-09-03T03:32:00;5.20;;;3.57;;
5662;SDS011;2854;42.692;23.364;2022-09-03T03:34:25;4.30;;;3.90;;
5662;SDS011;2854;42.692;23.364;2022-09-03T03:36:51;5.07;;;3.63;;
5662;SDS011;2854;42.692;23.364;2022-09-03T03:39:16;4.07;;;3.60;;
5662;SDS011;2854;42.692;23.364;2022-09-03T03:41:41;5.73;;;4.53;;
5662;SDS011;2854;42.692;23.364;2022-09-03T03:44:07;4.60;;;3.83;;
5662;SDS011;2854;42.692;23.364;2022-09-03T03:46:36;6.67;;;3.77;;
5662;SDS011;2854;42.692;23.364;2022-09-03T03:49:02;4.87;;;3.43;;
5662;SDS011;2854;42.692;23.364;2022-09-03T03:51:27;5.80;;;3.83;;
5662;SDS011;2854;42.692;23.364;2022-09-03T03:53:53;7.07;;;4.60;;
5662;SDS011;2854;42.692;23.364;2022-09-03T03:56:20;5.20;;;4.23;;
5662;SDS011;2854;42.692;23.364;2022-09-03T03:58:45;7.13;;;4.70;;
5662;SDS011;2854;42.692;23.364;2022-09-03T04:01:13;5.80;;;4.50;;
5662;SDS011;2854;42.692;23.364;2022-09-03T04:03:39;5.97;;;4.00;;
5662;SDS011;2854;42.692;23.364;2022-09-03T04:06:05;6.43;;;4.47;;
5662;SDS011;2854;42.692;23.364;2022-09-03T04:08:32;8.07;;;4.70;;
5662;SDS011;2854;42.692;23.364;2022-09-03T04:10:59;4.90;;;4.00;;
5662;SDS011;2854;42.692;23.364;2022-09-03T04:13:27;3.50;;;3.20;;
5662;SDS011;2854;42.692;23.364;2022-09-03T04:15:58;4.30;;;3.50;;
5662;SDS011;2854;42.692;23.364;2022-09-03T04:18:24;3.33;;;3.10;;
5662;SDS011;2854;42.692;23.364;2022-09-03T04:20:49;4.90;;;3.40;;
5662;SDS011;2854;42.692;23.364;2022-09-03T04:23:14;3.53;;;3.20;;
5662;SDS011;2854;42.692;23.364;2022-09-03T04:25:39;5.70;;;4.53;;
5662;SDS011;2854;42.692;23.364;2022-09-03T04:28:06;7.47;;;4.27;;
5662;SDS011;2854;42.692;23.364;2022-09-03T04:30:31;6.50;;;3.70;;
5662;SDS011;2854;42.692;23.364;2022-09-03T04:32:56;4.47;;;3.97;;
5662;SDS011;2854;42.692;23.364;2022-09-03T04:35:24;5.80;;;4.17;;
5662;SDS011;2854;42.692;23.364;2022-09-03T04:37:50;5.13;;;4.00;;
5662;SDS011;2854;42.692;23.364;2022-09-03T04:40:15;4.00;;;3.27;;
5662;SDS011;2854;42.692;23.364;2022-09-03T04:42:40;6.13;;;3.90;;
5662;SDS011;2854;42.692;23.364;2022-09-03T04:45:06;4.60;;;3.73;;
5662;SDS011;2854;42.692;23.364;2022-09-03T04:47:32;3.97;;;3.57;;
5662;SDS011;2854;42.692;23.364;2022-09-03T04:49:57;4.90;;;3.23;;
5662;SDS011;2854;42.692;23.364;2022-09-03T04:52:23;3.60;;;3.30;;
5662;SDS011;2854;42.692;23.364;2022-09-03T04:54:48;3.77;;;3.43;;
5662;SDS011;2854;42.692;23.364;2022-09-03T04:57:14;6.50;;;4.30;;
5662;SDS011;2854;42.692;23.364;2022-09-03T04:59:39;4.37;;;3.97;;
5662;SDS011;2854;42.692;23.364;2022-09-03T05:02:05;3.63;;;3.33;;
5662;SDS011;2854;42.692;23.364;2022-09-03T05:04:30;4.23;;;3.40;;
5662;SDS011;2854;42.692;23.364;2022-09-03T05:06:56;5.93;;;4.90;;
5662;SDS011;2854;42.692;23.364;2022-09-03T05:09:21;4.43;;;3.60;;
5662;SDS011;2854;42.692;23.364;2022-09-03T05:11:46;5.23;;;3.90;;
5662;SDS011;2854;42.692;23.364;2022-09-03T05:14:12;3.80;;;3.40;;
5662;SDS011;2854;42.692;23.364;2022-09-03T05:16:38;4.50;;;4.10;;
5662;SDS011;2854;42.692;23.364;2022-09-03T05:19:03;4.00;;;3.70;;
5662;SDS011;2854;42.692;23.364;2022-09-03T05:21:30;3.43;;;3.03;;
5662;SDS011;2854;42.692;23.364;2022-09-03T05:23:55;5.00;;;4.20;;
5662;SDS011;2854;42.692;23.364;2022-09-03T05:26:25;3.30;;;3.00;;
5662;SDS011;2854;42.692;23.364;2022-09-03T05:29:00;7.40;;;3.47;;
5662;SDS011;2854;42.692;23.364;2022-09-03T05:31:26;4.60;;;4.10;;
5662;SDS011;2854;42.692;23.364;2022-09-03T05:33:53;5.00;;;4.30;;
5662;SDS011;2854;42.692;23.364;2022-09-03T05:36:19;4.53;;;3.90;;
5662;SDS011;2854;42.692;23.364;2022-09-03T05:38:46;3.37;;;3.07;;
5662;SDS011;2854;42.692;23.364;2022-09-03T05:41:11;4.13;;;3.80;;
5662;SDS011;2854;42.692;23.364;2022-09-03T05:43:38;4.70;;;3.80;;
5662;SDS011;2854;42.692;23.364;2022-09-03T05:46:07;5.20;;;3.67;;
5662;SDS011;2854;42.692;23.364;2022-09-03T05:48:33;4.37;;;3.73;;
5662;SDS011;2854;42.692;23.364;2022-09-03T05:50:59;5.50;;;3.63;;
5662;SDS011;2854;42.692;23.364;2022-09-03T05:53:25;4.27;;;3.87;;
5662;SDS011;2854;42.692;23.364;2022-09-03T05:55:58;6.47;;;3.83;;
5662;SDS011;2854;42.692;23.364;2022-09-03T05:58:24;3.77;;;3.47;;
5662;SDS011;2854;42.692;23.364;2022-09-03T06:00:50;5.13;;;3.17;;
5662;SDS011;2854;42.692;23.364;2022-09-03T06:03:15;3.53;;;3.23;;
5662;SDS011;2854;42.692;23.364;2022-09-03T06:05:48;3.73;;;3.40;;
5662;SDS011;2854;42.692;23.364;2022-09-03T06:08:14;3.60;;;3.30;;
5662;SDS011;2854;42.692;23.364;2022-09-03T06:10:39;5.43;;;4.10;;
5662;SDS011;2854;42.692;23.364;2022-09-03T06:13:04;3.13;;;2.93;;
5662;SDS011;2854;42.692;23.364;2022-09-03T06:15:29;4.43;;;4.03;;
5662;SDS011;2854;42.692;23.364;2022-09-03T06:17:55;4.93;;;4.53;;
5662;SDS011;2854;42.692;23.364;2022-09-03T06:20:21;4.03;;;3.63;;
5662;SDS011;2854;42.692;23.364;2022-09-03T06:22:49;4.00;;;3.60;;
5662;SDS011;2854;42.692;23.364;2022-09-03T06:25:17;4.37;;;3.70;;
5662;SDS011;2854;42.692;23.364;2022-09-03T06:27:43;4.13;;;3.50;;
5662;SDS011;2854;42.692;23.364;2022-09-03T06:30:09;5.57;;;4.37;;
5662;SDS011;2854;42.692;23.364;2022-09-03T06:32:42;4.80;;;4.30;;
5662;SDS011;2854;42.692;23.364;2022-09-03T06:35:07;7.17;;;4.33;;
5662;SDS011;2854;42.692;23.364;2022-09-03T06:37:37;5.60;;;4.00;;
5662;SDS011;2854;42.692;23.364;2022-09-03T06:40:02;5.20;;;4.13;;
5662;SDS011;2854;42.692;23.364;2022-09-03T06:42:28;4.47;;;4.00;;
5662;SDS011;2854;42.692;23.364;2022-09-03T06:44:53;4.23;;;3.83;;
5662;SDS011;2854;42.692;23.364;2022-09-03T06:47:19;3.33;;;3.03;;
5662;SDS011;2854;42.692;23.364;2022-09-03T06:49:44;4.77;;;3.90;;
5662;SDS011;2854;42.692;23.364;2022-09-03T06:52:09;4.37;;;3.50;;
5662;SDS011;2854;42.692;23.364;2022-09-03T06:54:35;3.63;;;3.27;;
5662;SDS011;2854;42.692;23.364;2022-09-03T06:57:00;3.97;;;3.43;;
5662;SDS011;2854;42.692;23.364;2022-09-03T06:59:26;5.33;;;4.83;;
5662;SDS011;2854;42.692;23.364;2022-09-03T07:01:51;3.50;;;3.20;;
5662;SDS011;2854;42.692;23.364;2022-09-03T07:04:16;5.17;;;3.90;;
5662;SDS011;2854;42.692;23.364;2022-09-03T07:06:41;6.77;;;3.90;;
5662;SDS011;2854;42.692;23.364;2022-09-03T07:09:08;5.63;;;3.27;;
5662;SDS011;2854;42.692;23.364;2022-09-03T07:11:35;3.40;;;3.10;;
5662;SDS011;2854;42.692;23.364;2022-09-03T07:14:01;4.10;;;3.70;;
5662;SDS011;2854;42.692;23.364;2022-09-03T07:16:28;5.73;;;3.70;;
5662;SDS011;2854;42.692;23.364;2022-09-03T07:18:54;3.57;;;3.27;;
5662;SDS011;2854;42.692;23.364;2022-09-03T07:21:21;3.90;;;3.57;;
5662;SDS011;2854;42.692;23.364;2022-09-03T07:23:47;3.87;;;3.47;;
5662;SDS011;2854;42.692;23.364;2022-09-03T07:26:14;3.60;;;3.30;;
5662;SDS011;2854;42.692;23.364;2022-09-03T07:28:40;3.67;;;3.37;;
5662;SDS011;2854;42.692;23.364;2022-09-03T07:31:07;5.63;;;3.80;;
5662;SDS011;2854;42.692;23.364;2022-09-03T07:33:33;3.27;;;2.97;;
5662;SDS011;2854;42.692;23.364;2022-09-03T07:36:34;5.17;;;4.10;;
5662;SDS011;2854;42.692;23.364;2022-09-03T07:38:50;3.43;;;3.13;;
5662;SDS011;2854;42.692;23.364;2022-09-03T07:41:18;2.80;;;2.60;;
5662;SDS011;2854;42.692;23.364;2022-09-03T07:43:44;3.80;;;3.50;;
5662;SDS011;2854;42.692;23.364;2022-09-03T07:46:16;4.43;;;3.60;;
5662;SDS011;2854;42.692;23.364;2022-09-03T07:48:46;4.33;;;3.43;;
5662;SDS011;2854;42.692;23.364;2022-09-03T07:51:13;3.57;;;3.27;;
5662;SDS011;2854;42.692;23.364;2022-09-03T07:53:38;3.97;;;3.33;;
5662;SDS011;2854;42.692;23.364;2022-09-03T07:56:07;3.63;;;3.27;;
5662;SDS011;2854;42.692;23.364;2022-09-03T07:58:34;5.40;;;3.73;;
5662;SDS011;2854;42.692;23.364;2022-09-03T08:01:06;4.80;;;3.00;;
5662;SDS011;2854;42.692;23.364;2022-09-03T08:03:33;5.03;;;3.50;;
5662;SDS011;2854;42.692;23.364;2022-09-03T08:05:59;4.80;;;3.60;;
5662;SDS011;2854;42.692;23.364;2022-09-03T08:08:25;3.90;;;3.50;;
5662;SDS011;2854;42.692;23.364;2022-09-03T08:10:50;5.40;;;4.43;;
5662;SDS011;2854;42.692;23.364;2022-09-03T08:13:15;3.70;;;3.40;;
5662;SDS011;2854;42.692;23.364;2022-09-03T08:15:40;3.90;;;3.50;;
5662;SDS011;2854;42.692;23.364;2022-09-03T08:18:07;3.90;;;3.50;;
5662;SDS011;2854;42.692;23.364;2022-09-03T08:20:32;3.43;;;3.03;;
5662;SDS011;2854;42.692;23.364;2022-09-03T08:23:00;3.60;;;3.30;;
5662;SDS011;2854;42.692;23.364;2022-09-03T08:25:27;3.87;;;3.57;;
5662;SDS011;2854;42.692;23.364;2022-09-03T08:27:52;3.53;;;3.23;;
5662;SDS011;2854;42.692;23.364;2022-09-03T08:30:18;4.13;;;3.80;;
5662;SDS011;2854;42.692;23.364;2022-09-03T08:32:43;3.60;;;3.30;;
5662;SDS011;2854;42.692;23.364;2022-09-03T08:35:12;2.97;;;2.77;;
5662;SDS011;2854;42.692;23.364;2022-09-03T08:37:37;4.83;;;4.03;;
5662;SDS011;2854;42.692;23.364;2022-09-03T08:40:03;4.07;;;3.37;;
5662;SDS011;2854;42.692;23.364;2022-09-03T08:44:59;3.90;;;3.20;;
5662;SDS011;2854;42.692;23.364;2022-09-03T08:47:26;3.37;;;3.17;;
5662;SDS011;2854;42.692;23.364;2022-09-03T08:49:54;3.93;;;3.50;;
5662;SDS011;2854;42.692;23.364;2022-09-03T08:55:00;5.23;;;3.83;;
5662;SDS011;2854;42.692;23.364;2022-09-03T08:57:27;4.37;;;3.97;;
5662;SDS011;2854;42.692;23.364;2022-09-03T08:59:53;3.53;;;3.23;;
5662;SDS011;2854;42.692;23.364;2022-09-03T09:07:31;2.73;;;2.53;;
5662;SDS011;2854;42.692;23.364;2022-09-03T09:15:12;2.20;;;2.10;;
5662;SDS011;2854;42.692;23.364;2022-09-03T09:23:02;4.10;;;3.37;;
5662;SDS011;2854;42.692;23.364;2022-09-03T09:25:30;3.13;;;2.93;;
5662;SDS011;2854;42.692;23.364;2022-09-03T09:28:00;3.27;;;2.97;;
5662;SDS011;2854;42.692;23.364;2022-09-03T09:30:26;3.50;;;3.30;;
5662;SDS011;2854;42.692;23.364;2022-09-03T09:32:52;3.20;;;2.90;;
5662;SDS011;2854;42.692;23.364;2022-09-03T09:35:19;3.70;;;3.27;;
5662;SDS011;2854;42.692;23.364;2022-09-03T09:37:47;6.97;;;3.77;;
5662;SDS011;2854;42.692;23.364;2022-09-03T09:40:21;2.83;;;2.63;;
5662;SDS011;2854;42.692;23.364;2022-09-03T09:42:46;3.97;;;3.00;;
5662;SDS011;2854;42.692;23.364;2022-09-03T09:45:12;3.73;;;3.03;;
5662;SDS011;2854;42.692;23.364;2022-09-03T09:47:38;3.60;;;3.30;;
5662;SDS011;2854;42.692;23.364;2022-09-03T09:50:14;3.10;;;2.90;;
5662;SDS011;2854;42.692;23.364;2022-09-03T09:52:40;2.70;;;2.50;;
5662;SDS011;2854;42.692;23.364;2022-09-03T09:55:09;3.50;;;3.00;;
5662;SDS011;2854;42.692;23.364;2022-09-03T09:57:36;3.77;;;3.57;;
5662;SDS011;2854;42.692;23.364;2022-09-03T10:00:04;3.50;;;3.30;;
5662;SDS011;2854;42.692;23.364;2022-09-03T10:02:33;3.20;;;2.97;;
5662;SDS011;2854;42.692;23.364;2022-09-03T10:05:00;3.40;;;3.10;;
5662;SDS011;2854;42.692;23.364;2022-09-03T10:07:27;4.60;;;3.80;;
5662;SDS011;2854;42.692;23.364;2022-09-03T10:10:00;3.60;;;3.40;;
5662;SDS011;2854;42.692;23.364;2022-09-03T10:12:39;5.80;;;3.47;;
5662;SDS011;2854;42.692;23.364;2022-09-03T10:17:54;2.90;;;2.70;;
5662;SDS011;2854;42.692;23.364;2022-09-03T10:20:21;3.20;;;3.00;;
5662;SDS011;2854;42.692;23.364;2022-09-03T10:28:03;4.07;;;3.70;;
5662;SDS011;2854;42.692;23.364;2022-09-03T10:30:29;3.40;;;3.20;;
5662;SDS011;2854;42.692;23.364;2022-09-03T10:33:10;3.37;;;3.07;;
5662;SDS011;2854;42.692;23.364;2022-09-03T10:35:40;3.70;;;3.40;;
5662;SDS011;2854;42.692;23.364;2022-09-03T10:43:07;3.13;;;2.83;;
5662;SDS011;2854;42.692;23.364;2022-09-03T11:06:29;3.03;;;2.77;;
5662;SDS011;2854;42.692;23.364;2022-09-03T11:11:36;3.27;;;3.07;;
5662;SDS011;2854;42.692;23.364;2022-09-03T11:16:31;2.93;;;2.73;;
5662;SDS011;2854;42.692;23.364;2022-09-03T11:19:01;2.97;;;2.77;;
5662;SDS011;2854;42.692;23.364;2022-09-03T11:21:27;3.20;;;3.00;;
5662;SDS011;2854;42.692;23.364;2022-09-03T11:24:11;2.70;;;2.50;;
5662;SDS011;2854;42.692;23.364;2022-09-03T11:26:37;3.40;;;3.13;;
5662;SDS011;2854;42.692;23.364;2022-09-03T11:29:06;2.90;;;2.70;;
5662;SDS011;2854;42.692;23.364;2022-09-03T11:31:55;3.00;;;2.80;;
5662;SDS011;2854;42.692;23.364;2022-09-03T11:36:50;2.70;;;2.47;;
5662;SDS011;2854;42.692;23.364;2022-09-03T11:39:19;2.90;;;2.70;;
5662;SDS011;2854;42.692;23.364;2022-09-03T11:42:02;3.00;;;2.77;;
5662;SDS011;2854;42.692;23.364;2022-09-03T11:44:38;2.80;;;2.60;;
5662;SDS011;2854;42.692;23.364;2022-09-03T11:47:14;3.70;;;2.90;;
5662;SDS011;2854;42.692;23.364;2022-09-03T11:49:44;3.20;;;3.00;;
5662;SDS011;2854;42.692;23.364;2022-09-03T11:52:09;3.10;;;2.90;;
5662;SDS011;2854;42.692;23.364;2022-09-03T11:54:43;2.57;;;2.43;;
5662;SDS011;2854;42.692;23.364;2022-09-03T11:57:10;3.10;;;2.90;;
5662;SDS011;2854;42.692;23.364;2022-09-03T11:59:37;3.13;;;2.70;;
5662;SDS011;2854;42.692;23.364;2022-09-03T12:04:39;2.97;;;2.77;;
5662;SDS011;2854;42.692;23.364;2022-09-03T12:10:15;3.23;;;2.80;;
5662;SDS011;2854;42.692;23.364;2022-09-03T12:18:03;3.10;;;2.80;;
5662;SDS011;2854;42.692;23.364;2022-09-03T12:20:43;3.20;;;3.00;;
5662;SDS011;2854;42.692;23.364;2022-09-03T12:23:09;2.67;;;2.53;;
5662;SDS011;2854;42.692;23.364;2022-09-03T12:25:41;2.90;;;2.70;;
5662;SDS011;2854;42.692;23.364;2022-09-03T12:28:10;3.57;;;3.27;;
5662;SDS011;2854;42.692;23.364;2022-09-03T12:30:36;3.40;;;2.93;;
5662;SDS011;2854;42.692;23.364;2022-09-03T12:33:02;3.43;;;3.23;;
5662;SDS011;2854;42.692;23.364;2022-09-03T12:35:28;3.33;;;3.10;;
5662;SDS011;2854;42.692;23.364;2022-09-03T12:37:54;2.93;;;2.73;;
5662;SDS011;2854;42.692;23.364;2022-09-03T12:40:23;2.40;;;2.30;;
5662;SDS011;2854;42.692;23.364;2022-09-03T12:42:50;3.10;;;2.90;;
5662;SDS011;2854;42.692;23.364;2022-09-03T12:45:17;3.90;;;3.60;;
5662;SDS011;2854;42.692;23.364;2022-09-03T12:47:43;3.40;;;3.10;;
5662;SDS011;2854;42.692;23.364;2022-09-03T12:50:13;4.47;;;3.00;;
5662;SDS011;2854;42.692;23.364;2022-09-03T12:52:40;3.30;;;2.80;;
5662;SDS011;2854;42.692;23.364;2022-09-03T12:57:44;3.17;;;2.93;;
5662;SDS011;2854;42.692;23.364;2022-09-03T13:00:12;2.70;;;2.50;;
5662;SDS011;2854;42.692;23.364;2022-09-03T13:02:40;2.90;;;2.70;;
5662;SDS011;2854;42.692;23.364;2022-09-03T13:05:17;2.97;;;2.63;;
5662;SDS011;2854;42.692;23.364;2022-09-03T13:07:44;2.77;;;2.57;;
5662;SDS011;2854;42.692;23.364;2022-09-03T13:10:19;2.40;;;2.20;;
5662;SDS011;2854;42.692;23.364;2022-09-03T13:12:47;2.60;;;2.40;;
5662;SDS011;2854;42.692;23.364;2022-09-03T13:15:17;3.13;;;2.10;;
5662;SDS011;2854;42.692;23.364;2022-09-03T13:17:56;1.70;;;1.60;;
5662;SDS011;2854;42.692;23.364;2022-09-03T13:20:28;2.00;;;1.90;;
5662;SDS011;2854;42.692;23.364;2022-09-03T13:22:59;2.20;;;2.00;;
5662;SDS011;2854;42.692;23.364;2022-09-03T13:34:00;2.77;;;2.50;;
5662;SDS011;2854;42.692;23.364;2022-09-03T13:36:33;1.83;;;1.73;;
5662;SDS011;2854;42.692;23.364;2022-09-03T13:39:01;1.57;;;1.47;;
5662;SDS011;2854;42.692;23.364;2022-09-03T13:41:47;2.30;;;2.20;;
5662;SDS011;2854;42.692;23.364;2022-09-03T13:44:19;2.03;;;1.90;;
5662;SDS011;2854;42.692;23.364;2022-09-03T13:55:13;1.97;;;1.87;;
5662;SDS011;2854;42.692;23.364;2022-09-03T13:57:53;2.00;;;1.90;;
5662;SDS011;2854;42.692;23.364;2022-09-03T14:05:16;1.53;;;1.43;;
5662;SDS011;2854;42.692;23.364;2022-09-03T14:08:31;1.87;;;1.77;;
5662;SDS011;2854;42.692;23.364;2022-09-03T14:13:15;2.47;;;1.87;;
5662;SDS011;2854;42.692;23.364;2022-09-03T14:21:10;1.93;;;1.80;;
5662;SDS011;2854;42.692;23.364;2022-09-03T14:23:45;2.23;;;2.10;;
5662;SDS011;2854;42.692;23.364;2022-09-03T14:26:15;2.40;;;2.30;;
5662;SDS011;2854;42.692;23.364;2022-09-03T14:28:48;1.87;;;1.77;;
5662;SDS011;2854;42.692;23.364;2022-09-03T14:31:26;2.33;;;2.13;;
5662;SDS011;2854;42.692;23.364;2022-09-03T14:36:29;2.60;;;2.40;;
5662;SDS011;2854;42.692;23.364;2022-09-03T14:41:31;1.87;;;1.77;;
5662;SDS011;2854;42.692;23.364;2022-09-03T14:59:28;2.27;;;2.17;;
5662;SDS011;2854;42.692;23.364;2022-09-03T15:07:23;2.30;;;2.10;;
5662;SDS011;2854;42.692;23.364;2022-09-03T15:12:43;2.67;;;2.57;;
5662;SDS011;2854;42.692;23.364;2022-09-03T15:15:17;2.67;;;2.30;;
5662;SDS011;2854;42.692;23.364;2022-09-03T15:25:38;2.43;;;2.33;;
5662;SDS011;2854;42.692;23.364;2022-09-03T15:28:15;1.97;;;1.87;;
5662;SDS011;2854;42.692;23.364;2022-09-03T15:30:56;3.10;;;2.90;;
5662;SDS011;2854;42.692;23.364;2022-09-03T15:36:03;3.10;;;2.80;;
5662;SDS011;2854;42.692;23.364;2022-09-03T15:41:00;3.00;;;2.80;;
5662;SDS011;2854;42.692;23.364;2022-09-03T15:43:30;3.27;;;3.07;;
5662;SDS011;2854;42.692;23.364;2022-09-03T15:46:03;4.03;;;3.30;;
5662;SDS011;2854;42.692;23.364;2022-09-03T15:53:56;4.17;;;3.77;;
5662;SDS011;2854;42.692;23.364;2022-09-03T15:56:27;3.63;;;3.40;;
5662;SDS011;2854;42.692;23.364;2022-09-03T16:03:48;3.60;;;3.40;;
5662;SDS011;2854;42.692;23.364;2022-09-03T16:22:02;3.80;;;3.50;;
5662;SDS011;2854;42.692;23.364;2022-09-03T16:24:43;3.77;;;3.30;;
5662;SDS011;2854;42.692;23.364;2022-09-03T16:27:21;4.20;;;3.87;;
5662;SDS011;2854;42.692;23.364;2022-09-03T16:37:32;4.23;;;3.83;;
5662;SDS011;2854;42.692;23.364;2022-09-03T16:45:23;5.03;;;4.30;;
5662;SDS011;2854;42.692;23.364;2022-09-03T16:53:43;4.37;;;3.90;;
5662;SDS011;2854;42.692;23.364;2022-09-03T17:06:23;3.40;;;3.20;;
5662;SDS011;2854;42.692;23.364;2022-09-03T17:19:05;4.63;;;4.20;;
5662;SDS011;2854;42.692;23.364;2022-09-03T17:24:22;4.43;;;3.77;;
5662;SDS011;2854;42.692;23.364;2022-09-03T17:29:35;4.47;;;4.07;;
5662;SDS011;2854;42.692;23.364;2022-09-03T17:37:24;4.90;;;3.80;;
5662;SDS011;2854;42.692;23.364;2022-09-03T17:42:23;3.90;;;3.50;;
5662;SDS011;2854;42.692;23.364;2022-09-03T17:49:53;3.73;;;3.37;;
5662;SDS011;2854;42.692;23.364;2022-09-03T17:54:48;4.60;;;4.20;;
5662;SDS011;2854;42.692;23.364;2022-09-03T17:59:45;3.53;;;3.23;;
5662;SDS011;2854;42.692;23.364;2022-09-03T18:07:09;4.20;;;3.27;;
5662;SDS011;2854;42.692;23.364;2022-09-03T18:09:46;4.60;;;3.67;;
5662;SDS011;2854;42.692;23.364;2022-09-03T18:14:54;3.80;;;3.53;;
5662;SDS011;2854;42.692;23.364;2022-09-03T18:19:51;3.77;;;3.47;;
5662;SDS011;2854;42.692;23.364;2022-09-03T18:22:40;5.03;;;4.30;;
5662;SDS011;2854;42.692;23.364;2022-09-03T18:25:26;3.60;;;3.40;;
5662;SDS011;2854;42.692;23.364;2022-09-03T18:28:13;3.83;;;3.60;;
5662;SDS011;2854;42.692;23.364;2022-09-03T18:30:58;4.53;;;4.17;;
5662;SDS011;2854;42.692;23.364;2022-09-03T18:33:42;4.57;;;4.13;;
5662;SDS011;2854;42.692;23.364;2022-09-03T18:36:26;4.80;;;4.40;;
5662;SDS011;2854;42.692;23.364;2022-09-03T18:39:14;4.13;;;3.80;;
5662;SDS011;2854;42.692;23.364;2022-09-03T18:47:40;4.93;;;3.93;;
5662;SDS011;2854;42.692;23.364;2022-09-03T18:56:27;5.07;;;3.97;;
5662;SDS011;2854;42.692;23.364;2022-09-03T18:59:21;4.70;;;4.23;;
5662;SDS011;2854;42.692;23.364;2022-09-03T19:05:17;6.53;;;4.97;;
5662;SDS011;2854;42.692;23.364;2022-09-03T19:08:05;7.83;;;5.10;;
5662;SDS011;2854;42.692;23.364;2022-09-03T19:13:36;4.73;;;4.33;;
5662;SDS011;2854;42.692;23.364;2022-09-03T19:16:24;4.70;;;4.30;;
5662;SDS011;2854;42.692;23.364;2022-09-03T19:19:13;5.50;;;4.47;;
5662;SDS011;2854;42.692;23.364;2022-09-03T19:22:04;6.23;;;5.13;;
5662;SDS011;2854;42.692;23.364;2022-09-03T19:24:49;5.00;;;4.50;;
5662;SDS011;2854;42.692;23.364;2022-09-03T19:27:38;6.03;;;4.47;;
5662;SDS011;2854;42.692;23.364;2022-09-03T19:30:25;4.77;;;4.27;;
5662;SDS011;2854;42.692;23.364;2022-09-03T19:33:23;4.50;;;3.77;;
5662;SDS011;2854;42.692;23.364;2022-09-03T19:36:19;5.40;;;4.57;;
5662;SDS011;2854;42.692;23.364;2022-09-03T19:50:35;16.03;;;4.53;;
5662;SDS011;2854;42.692;23.364;2022-09-03T19:53:21;7.70;;;4.60;;
5662;SDS011;2854;42.692;23.364;2022-09-03T19:56:08;4.67;;;3.90;;
5662;SDS011;2854;42.692;23.364;2022-09-03T19:59:00;5.83;;;3.97;;
5662;SDS011;2854;42.692;23.364;2022-09-03T20:01:45;5.50;;;4.63;;
5662;SDS011;2854;42.692;23.364;2022-09-03T20:04:31;7.53;;;4.53;;
5662;SDS011;2854;42.692;23.364;2022-09-03T20:07:15;5.33;;;4.83;;
5662;SDS011;2854;42.692;23.364;2022-09-03T20:10:00;7.37;;;4.70;;
5662;SDS011;2854;42.692;23.364;2022-09-03T20:12:46;6.73;;;5.27;;
5662;SDS011;2854;42.692;23.364;2022-09-03T20:15:13;9.10;;;5.50;;
5662;SDS011;2854;42.692;23.364;2022-09-03T20:37:52;5.10;;;4.67;;
5662;SDS011;2854;42.692;23.364;2022-09-03T20:51:12;5.63;;;4.43;;
5662;SDS011;2854;42.692;23.364;2022-09-03T20:56:24;4.20;;;3.90;;
5662;SDS011;2854;42.692;23.364;2022-09-03T21:01:23;6.93;;;5.10;;
5662;SDS011;2854;42.692;23.364;2022-09-03T21:06:27;9.33;;;5.23;;
5662;SDS011;2854;42.692;23.364;2022-09-03T21:11:31;6.23;;;4.60;;
5662;SDS011;2854;42.692;23.364;2022-09-03T21:19:18;4.50;;;4.10;;
5662;SDS011;2854;42.692;23.364;2022-09-03T21:22:08;5.23;;;4.40;;
5662;SDS011;2854;42.692;23.364;2022-09-03T21:24:35;5.20;;;4.40;;
5662;SDS011;2854;42.692;23.364;2022-09-03T21:27:05;6.00;;;4.27;;
5662;SDS011;2854;42.692;23.364;2022-09-03T21:29:42;4.53;;;4.10;;
5662;SDS011;2854;42.692;23.364;2022-09-03T21:32:21;4.37;;;3.97;;
5662;SDS011;2854;42.692;23.364;2022-09-03T21:35:33;6.20;;;4.07;;